Terminal Aerodrome Forecast
Issued by NWS Jackson, MS

Home | Current Version | Previous Version | Text Only | Print | Product List | Glossary On
Versions: 1 2 3 4 5 6 7 8 9 10 11 12 13 14 15 16 17
000
FTUS44 KJAN 021700
TAFJAN
TAF
KJAN 021731Z 0218/0318 01005KT 1SM BR OVC002
     FM021900 03007KT 2SM -SHRA OVC003
     FM030000 03005KT 2SM BR OVC003
     FM030300 VRB04KT 1SM BR OVC002
     FM030600 12004KT 1/2SM FG OVC001
     FM031000 15006KT 1SM BR OVC003
     FM031500 17008KT 4SM BR OVC008=

USA.gov is the U.S. government's official web portal to all federal, state and local government web resources and services.